sensor_id;sensor_type;location;lat;lon;timestamp;P1;durP1;ratioP1;P2;durP2;ratioP2
74059;SDS011;62414;53.436;8.828;2022-08-14T00:01:45;10.52;;;5.07;;
74059;SDS011;62414;53.436;8.828;2022-08-14T00:04:11;6.60;;;4.80;;
74059;SDS011;62414;53.436;8.828;2022-08-14T00:06:37;11.40;;;4.90;;
74059;SDS011;62414;53.436;8.828;2022-08-14T00:09:03;7.57;;;4.72;;
74059;SDS011;62414;53.436;8.828;2022-08-14T00:11:28;9.03;;;4.77;;
74059;SDS011;62414;53.436;8.828;2022-08-14T00:13:54;8.30;;;4.95;;
74059;SDS011;62414;53.436;8.828;2022-08-14T00:16:19;6.37;;;4.70;;
74059;SDS011;62414;53.436;8.828;2022-08-14T00:18:45;7.60;;;4.70;;
74059;SDS011;62414;53.436;8.828;2022-08-14T00:21:10;8.52;;;4.93;;
74059;SDS011;62414;53.436;8.828;2022-08-14T00:23:37;8.37;;;5.40;;
74059;SDS011;62414;53.436;8.828;2022-08-14T00:26:03;7.43;;;4.82;;
74059;SDS011;62414;53.436;8.828;2022-08-14T00:28:28;6.57;;;4.77;;
74059;SDS011;62414;53.436;8.828;2022-08-14T00:30:54;7.78;;;5.13;;
74059;SDS011;62414;53.436;8.828;2022-08-14T00:33:21;7.20;;;5.10;;
74059;SDS011;62414;53.436;8.828;2022-08-14T00:35:46;12.40;;;5.40;;
74059;SDS011;62414;53.436;8.828;2022-08-14T00:38:12;6.67;;;4.90;;
74059;SDS011;62414;53.436;8.828;2022-08-14T00:40:38;8.13;;;5.20;;
74059;SDS011;62414;53.436;8.828;2022-08-14T00:43:04;9.07;;;5.22;;
74059;SDS011;62414;53.436;8.828;2022-08-14T00:45:30;7.37;;;5.10;;
74059;SDS011;62414;53.436;8.828;2022-08-14T00:47:55;9.37;;;5.10;;
74059;SDS011;62414;53.436;8.828;2022-08-14T00:50:21;7.87;;;5.10;;
74059;SDS011;62414;53.436;8.828;2022-08-14T00:52:47;8.45;;;5.30;;
74059;SDS011;62414;53.436;8.828;2022-08-14T00:55:14;7.53;;;5.20;;
74059;SDS011;62414;53.436;8.828;2022-08-14T00:57:41;8.57;;;5.20;;
74059;SDS011;62414;53.436;8.828;2022-08-14T01:00:08;6.57;;;5.05;;
74059;SDS011;62414;53.436;8.828;2022-08-14T01:02:36;7.85;;;5.10;;
74059;SDS011;62414;53.436;8.828;2022-08-14T01:05:01;7.27;;;5.00;;
74059;SDS011;62414;53.436;8.828;2022-08-14T01:07:27;7.60;;;5.17;;
74059;SDS011;62414;53.436;8.828;2022-08-14T01:09:53;7.55;;;5.07;;
74059;SDS011;62414;53.436;8.828;2022-08-14T01:12:19;7.38;;;5.20;;
74059;SDS011;62414;53.436;8.828;2022-08-14T01:14:47;7.90;;;5.30;;
74059;SDS011;62414;53.436;8.828;2022-08-14T01:17:13;7.88;;;5.07;;
74059;SDS011;62414;53.436;8.828;2022-08-14T01:19:38;10.17;;;5.40;;
74059;SDS011;62414;53.436;8.828;2022-08-14T01:22:05;7.90;;;5.30;;
74059;SDS011;62414;53.436;8.828;2022-08-14T01:24:31;9.63;;;5.80;;
74059;SDS011;62414;53.436;8.828;2022-08-14T01:26:57;9.23;;;5.13;;
74059;SDS011;62414;53.436;8.828;2022-08-14T01:29:22;9.65;;;5.47;;
74059;SDS011;62414;53.436;8.828;2022-08-14T01:31:48;8.00;;;5.23;;
74059;SDS011;62414;53.436;8.828;2022-08-14T01:34:13;6.47;;;5.10;;
74059;SDS011;62414;53.436;8.828;2022-08-14T01:36:39;9.07;;;5.80;;
74059;SDS011;62414;53.436;8.828;2022-08-14T01:39:08;8.85;;;5.50;;
74059;SDS011;62414;53.436;8.828;2022-08-14T01:41:35;9.37;;;5.73;;
74059;SDS011;62414;53.436;8.828;2022-08-14T01:44:01;9.93;;;5.47;;
74059;SDS011;62414;53.436;8.828;2022-08-14T01:46:30;9.05;;;5.55;;
74059;SDS011;62414;53.436;8.828;2022-08-14T01:48:57;8.30;;;5.20;;
74059;SDS011;62414;53.436;8.828;2022-08-14T01:51:23;9.20;;;5.40;;
74059;SDS011;62414;53.436;8.828;2022-08-14T01:53:50;9.68;;;5.70;;
74059;SDS011;62414;53.436;8.828;2022-08-14T01:56:21;8.27;;;5.60;;
74059;SDS011;62414;53.436;8.828;2022-08-14T01:58:48;10.20;;;5.60;;
74059;SDS011;62414;53.436;8.828;2022-08-14T02:01:14;8.30;;;5.33;;
74059;SDS011;62414;53.436;8.828;2022-08-14T02:03:40;8.90;;;5.60;;
74059;SDS011;62414;53.436;8.828;2022-08-14T02:06:06;7.47;;;5.40;;
74059;SDS011;62414;53.436;8.828;2022-08-14T02:08:32;10.17;;;5.73;;
74059;SDS011;62414;53.436;8.828;2022-08-14T02:10:58;10.73;;;5.50;;
74059;SDS011;62414;53.436;8.828;2022-08-14T02:13:25;7.03;;;5.50;;
74059;SDS011;62414;53.436;8.828;2022-08-14T02:15:50;8.43;;;5.50;;
74059;SDS011;62414;53.436;8.828;2022-08-14T02:18:16;9.13;;;5.90;;
74059;SDS011;62414;53.436;8.828;2022-08-14T02:20:42;9.63;;;6.10;;
74059;SDS011;62414;53.436;8.828;2022-08-14T02:23:07;8.20;;;5.50;;
74059;SDS011;62414;53.436;8.828;2022-08-14T02:25:33;7.43;;;5.40;;
74059;SDS011;62414;53.436;8.828;2022-08-14T02:27:58;8.00;;;5.33;;
74059;SDS011;62414;53.436;8.828;2022-08-14T02:30:25;9.68;;;5.60;;
74059;SDS011;62414;53.436;8.828;2022-08-14T02:32:51;7.72;;;5.53;;
74059;SDS011;62414;53.436;8.828;2022-08-14T02:35:16;8.17;;;5.57;;
74059;SDS011;62414;53.436;8.828;2022-08-14T02:37:42;8.35;;;5.60;;
74059;SDS011;62414;53.436;8.828;2022-08-14T02:40:08;8.02;;;5.32;;
74059;SDS011;62414;53.436;8.828;2022-08-14T02:42:34;8.35;;;5.30;;
74059;SDS011;62414;53.436;8.828;2022-08-14T02:45:00;7.15;;;5.45;;
74059;SDS011;62414;53.436;8.828;2022-08-14T02:47:27;7.23;;;5.10;;
74059;SDS011;62414;53.436;8.828;2022-08-14T02:49:52;8.70;;;5.55;;
74059;SDS011;62414;53.436;8.828;2022-08-14T02:52:18;7.13;;;5.40;;
74059;SDS011;62414;53.436;8.828;2022-08-14T02:54:43;17.20;;;5.57;;
74059;SDS011;62414;53.436;8.828;2022-08-14T02:57:09;10.02;;;5.13;;
74059;SDS011;62414;53.436;8.828;2022-08-14T02:59:35;9.30;;;5.40;;
74059;SDS011;62414;53.436;8.828;2022-08-14T03:02:01;7.03;;;5.30;;
74059;SDS011;62414;53.436;8.828;2022-08-14T03:04:29;8.60;;;5.53;;
74059;SDS011;62414;53.436;8.828;2022-08-14T03:06:54;8.10;;;5.57;;
74059;SDS011;62414;53.436;8.828;2022-08-14T03:09:20;6.72;;;5.13;;
74059;SDS011;62414;53.436;8.828;2022-08-14T03:11:46;8.25;;;5.63;;
74059;SDS011;62414;53.436;8.828;2022-08-14T03:14:12;8.53;;;5.70;;
74059;SDS011;62414;53.436;8.828;2022-08-14T03:16:37;9.37;;;5.40;;
74059;SDS011;62414;53.436;8.828;2022-08-14T03:19:04;8.73;;;5.40;;
74059;SDS011;62414;53.436;8.828;2022-08-14T03:21:34;6.97;;;5.32;;
74059;SDS011;62414;53.436;8.828;2022-08-14T03:24:00;10.40;;;5.80;;
74059;SDS011;62414;53.436;8.828;2022-08-14T03:26:26;7.75;;;5.47;;
74059;SDS011;62414;53.436;8.828;2022-08-14T03:28:52;7.33;;;5.40;;
74059;SDS011;62414;53.436;8.828;2022-08-14T03:31:17;9.00;;;5.17;;
74059;SDS011;62414;53.436;8.828;2022-08-14T03:33:44;6.63;;;5.03;;
74059;SDS011;62414;53.436;8.828;2022-08-14T03:36:10;7.87;;;5.23;;
74059;SDS011;62414;53.436;8.828;2022-08-14T03:38:39;7.18;;;5.20;;
74059;SDS011;62414;53.436;8.828;2022-08-14T03:41:06;6.97;;;4.80;;
74059;SDS011;62414;53.436;8.828;2022-08-14T03:43:31;8.80;;;5.60;;
74059;SDS011;62414;53.436;8.828;2022-08-14T03:45:56;7.03;;;5.43;;
74059;SDS011;62414;53.436;8.828;2022-08-14T03:48:22;7.75;;;5.45;;
74059;SDS011;62414;53.436;8.828;2022-08-14T03:50:49;7.77;;;5.60;;
74059;SDS011;62414;53.436;8.828;2022-08-14T03:53:15;8.65;;;5.40;;
74059;SDS011;62414;53.436;8.828;2022-08-14T03:55:42;6.37;;;5.17;;
74059;SDS011;62414;53.436;8.828;2022-08-14T03:58:07;8.13;;;5.20;;
74059;SDS011;62414;53.436;8.828;2022-08-14T04:00:35;8.00;;;5.25;;
74059;SDS011;62414;53.436;8.828;2022-08-14T04:03:01;7.40;;;4.90;;
74059;SDS011;62414;53.436;8.828;2022-08-14T04:05:28;9.32;;;5.35;;
74059;SDS011;62414;53.436;8.828;2022-08-14T04:07:53;6.82;;;5.20;;
74059;SDS011;62414;53.436;8.828;2022-08-14T04:10:19;7.97;;;5.00;;
74059;SDS011;62414;53.436;8.828;2022-08-14T04:12:45;6.73;;;4.80;;
74059;SDS011;62414;53.436;8.828;2022-08-14T04:15:11;9.05;;;5.20;;
74059;SDS011;62414;53.436;8.828;2022-08-14T04:17:36;7.40;;;5.20;;
74059;SDS011;62414;53.436;8.828;2022-08-14T04:20:02;8.67;;;5.27;;
74059;SDS011;62414;53.436;8.828;2022-08-14T04:22:29;7.23;;;5.00;;
74059;SDS011;62414;53.436;8.828;2022-08-14T04:24:55;7.18;;;5.38;;
74059;SDS011;62414;53.436;8.828;2022-08-14T04:27:20;7.17;;;4.73;;
74059;SDS011;62414;53.436;8.828;2022-08-14T04:29:47;7.55;;;4.90;;
74059;SDS011;62414;53.436;8.828;2022-08-14T04:32:13;7.50;;;4.77;;
74059;SDS011;62414;53.436;8.828;2022-08-14T04:34:38;8.05;;;5.28;;
74059;SDS011;62414;53.436;8.828;2022-08-14T04:37:03;8.17;;;5.10;;
74059;SDS011;62414;53.436;8.828;2022-08-14T04:39:29;8.23;;;4.80;;
74059;SDS011;62414;53.436;8.828;2022-08-14T04:41:55;8.43;;;5.03;;
74059;SDS011;62414;53.436;8.828;2022-08-14T04:44:20;7.10;;;4.87;;
74059;SDS011;62414;53.436;8.828;2022-08-14T04:46:47;9.07;;;4.93;;
74059;SDS011;62414;53.436;8.828;2022-08-14T04:49:12;7.90;;;5.07;;
74059;SDS011;62414;53.436;8.828;2022-08-14T04:51:38;7.38;;;4.93;;
74059;SDS011;62414;53.436;8.828;2022-08-14T04:54:03;7.60;;;4.77;;
74059;SDS011;62414;53.436;8.828;2022-08-14T04:56:29;8.73;;;5.00;;
74059;SDS011;62414;53.436;8.828;2022-08-14T04:58:55;8.80;;;5.00;;
74059;SDS011;62414;53.436;8.828;2022-08-14T05:01:24;6.57;;;5.23;;
74059;SDS011;62414;53.436;8.828;2022-08-14T05:03:51;7.25;;;4.97;;
74059;SDS011;62414;53.436;8.828;2022-08-14T05:06:17;6.25;;;5.03;;
74059;SDS011;62414;53.436;8.828;2022-08-14T05:08:43;8.75;;;5.00;;
74059;SDS011;62414;53.436;8.828;2022-08-14T05:11:08;8.07;;;4.63;;
74059;SDS011;62414;53.436;8.828;2022-08-14T05:13:34;6.60;;;4.75;;
74059;SDS011;62414;53.436;8.828;2022-08-14T05:16:01;6.17;;;4.80;;
74059;SDS011;62414;53.436;8.828;2022-08-14T05:18:28;6.85;;;4.80;;
74059;SDS011;62414;53.436;8.828;2022-08-14T05:20:57;6.90;;;4.80;;
74059;SDS011;62414;53.436;8.828;2022-08-14T05:23:25;8.65;;;4.78;;
74059;SDS011;62414;53.436;8.828;2022-08-14T05:25:52;8.77;;;4.90;;
74059;SDS011;62414;53.436;8.828;2022-08-14T05:28:19;6.33;;;4.83;;
74059;SDS011;62414;53.436;8.828;2022-08-14T05:30:45;6.75;;;4.72;;
74059;SDS011;62414;53.436;8.828;2022-08-14T05:33:12;8.07;;;5.07;;
74059;SDS011;62414;53.436;8.828;2022-08-14T05:35:38;7.47;;;4.82;;
74059;SDS011;62414;53.436;8.828;2022-08-14T05:38:07;7.70;;;4.80;;
74059;SDS011;62414;53.436;8.828;2022-08-14T05:40:33;6.03;;;4.45;;
74059;SDS011;62414;53.436;8.828;2022-08-14T05:42:58;7.00;;;4.60;;
74059;SDS011;62414;53.436;8.828;2022-08-14T05:45:23;7.53;;;4.60;;
74059;SDS011;62414;53.436;8.828;2022-08-14T05:47:49;7.75;;;4.85;;
74059;SDS011;62414;53.436;8.828;2022-08-14T05:50:14;6.60;;;4.40;;
74059;SDS011;62414;53.436;8.828;2022-08-14T05:52:40;6.40;;;4.60;;
74059;SDS011;62414;53.436;8.828;2022-08-14T05:55:07;6.45;;;4.50;;
74059;SDS011;62414;53.436;8.828;2022-08-14T05:57:44;6.82;;;4.50;;
74059;SDS011;62414;53.436;8.828;2022-08-14T06:00:10;7.30;;;4.73;;
74059;SDS011;62414;53.436;8.828;2022-08-14T06:02:37;5.93;;;4.50;;
74059;SDS011;62414;53.436;8.828;2022-08-14T06:05:02;5.67;;;4.50;;
74059;SDS011;62414;53.436;8.828;2022-08-14T06:07:28;6.82;;;4.85;;
74059;SDS011;62414;53.436;8.828;2022-08-14T06:09:53;6.03;;;4.70;;
74059;SDS011;62414;53.436;8.828;2022-08-14T06:12:20;6.20;;;4.50;;
74059;SDS011;62414;53.436;8.828;2022-08-14T06:14:46;6.20;;;4.60;;
74059;SDS011;62414;53.436;8.828;2022-08-14T06:17:11;7.03;;;4.60;;
74059;SDS011;62414;53.436;8.828;2022-08-14T06:19:37;6.80;;;4.70;;
74059;SDS011;62414;53.436;8.828;2022-08-14T06:22:02;7.97;;;4.80;;
74059;SDS011;62414;53.436;8.828;2022-08-14T06:24:28;8.17;;;4.53;;
74059;SDS011;62414;53.436;8.828;2022-08-14T06:26:53;8.77;;;4.68;;
74059;SDS011;62414;53.436;8.828;2022-08-14T06:29:20;5.87;;;4.40;;
74059;SDS011;62414;53.436;8.828;2022-08-14T06:31:46;7.45;;;4.50;;
74059;SDS011;62414;53.436;8.828;2022-08-14T06:34:11;7.03;;;4.90;;
74059;SDS011;62414;53.436;8.828;2022-08-14T06:36:37;7.10;;;4.80;;
74059;SDS011;62414;53.436;8.828;2022-08-14T06:39:02;6.07;;;4.50;;
74059;SDS011;62414;53.436;8.828;2022-08-14T06:41:28;8.67;;;4.80;;
74059;SDS011;62414;53.436;8.828;2022-08-14T06:43:53;6.83;;;5.00;;
74059;SDS011;62414;53.436;8.828;2022-08-14T06:46:20;6.23;;;4.60;;
74059;SDS011;62414;53.436;8.828;2022-08-14T06:48:47;8.75;;;4.88;;
74059;SDS011;62414;53.436;8.828;2022-08-14T06:51:13;8.23;;;4.90;;
74059;SDS011;62414;53.436;8.828;2022-08-14T06:53:38;6.35;;;5.00;;
74059;SDS011;62414;53.436;8.828;2022-08-14T06:56:04;8.23;;;4.97;;
74059;SDS011;62414;53.436;8.828;2022-08-14T06:58:29;6.57;;;4.80;;
74059;SDS011;62414;53.436;8.828;2022-08-14T07:00:55;7.50;;;4.83;;
74059;SDS011;62414;53.436;8.828;2022-08-14T07:03:22;6.90;;;5.00;;
74059;SDS011;62414;53.436;8.828;2022-08-14T07:05:47;8.02;;;4.57;;
74059;SDS011;62414;53.436;8.828;2022-08-14T07:08:14;7.70;;;4.95;;
74059;SDS011;62414;53.436;8.828;2022-08-14T07:10:41;7.50;;;4.75;;
74059;SDS011;62414;53.436;8.828;2022-08-14T07:13:06;8.83;;;5.67;;
74059;SDS011;62414;53.436;8.828;2022-08-14T07:15:32;7.88;;;5.07;;
74059;SDS011;62414;53.436;8.828;2022-08-14T07:17:58;7.63;;;4.97;;
74059;SDS011;62414;53.436;8.828;2022-08-14T07:20:25;7.72;;;5.00;;
74059;SDS011;62414;53.436;8.828;2022-08-14T07:22:50;6.78;;;4.97;;
74059;SDS011;62414;53.436;8.828;2022-08-14T07:25:16;9.63;;;5.30;;
74059;SDS011;62414;53.436;8.828;2022-08-14T07:27:41;6.83;;;5.10;;
74059;SDS011;62414;53.436;8.828;2022-08-14T07:30:08;7.53;;;5.10;;
74059;SDS011;62414;53.436;8.828;2022-08-14T07:32:34;7.20;;;5.28;;
74059;SDS011;62414;53.436;8.828;2022-08-14T07:35:00;7.90;;;4.90;;
74059;SDS011;62414;53.436;8.828;2022-08-14T07:37:26;7.43;;;5.07;;
74059;SDS011;62414;53.436;8.828;2022-08-14T07:39:52;6.75;;;5.20;;
74059;SDS011;62414;53.436;8.828;2022-08-14T07:42:17;8.27;;;5.20;;
74059;SDS011;62414;53.436;8.828;2022-08-14T07:44:43;7.82;;;5.57;;
74059;SDS011;62414;53.436;8.828;2022-08-14T07:47:08;8.13;;;5.80;;
74059;SDS011;62414;53.436;8.828;2022-08-14T07:49:34;7.17;;;5.30;;
74059;SDS011;62414;53.436;8.828;2022-08-14T07:52:00;10.38;;;5.57;;
74059;SDS011;62414;53.436;8.828;2022-08-14T07:54:27;6.53;;;5.30;;
74059;SDS011;62414;53.436;8.828;2022-08-14T07:56:52;8.75;;;5.32;;
74059;SDS011;62414;53.436;8.828;2022-08-14T07:59:18;8.43;;;5.63;;
74059;SDS011;62414;53.436;8.828;2022-08-14T08:01:44;9.23;;;5.60;;
74059;SDS011;62414;53.436;8.828;2022-08-14T08:04:11;8.57;;;5.75;;
74059;SDS011;62414;53.436;8.828;2022-08-14T08:06:37;8.47;;;5.60;;
74059;SDS011;62414;53.436;8.828;2022-08-14T08:09:03;8.32;;;5.40;;
74059;SDS011;62414;53.436;8.828;2022-08-14T08:11:32;6.93;;;5.72;;
74059;SDS011;62414;53.436;8.828;2022-08-14T08:13:58;7.73;;;6.10;;
74059;SDS011;62414;53.436;8.828;2022-08-14T08:16:26;6.95;;;5.70;;
74059;SDS011;62414;53.436;8.828;2022-08-14T08:18:52;8.50;;;5.68;;
74059;SDS011;62414;53.436;8.828;2022-08-14T08:21:18;8.10;;;6.00;;
74059;SDS011;62414;53.436;8.828;2022-08-14T08:23:43;6.60;;;5.80;;
74059;SDS011;62414;53.436;8.828;2022-08-14T08:26:09;10.23;;;6.00;;
74059;SDS011;62414;53.436;8.828;2022-08-14T08:28:36;9.17;;;5.80;;
74059;SDS011;62414;53.436;8.828;2022-08-14T08:31:02;7.83;;;5.70;;
74059;SDS011;62414;53.436;8.828;2022-08-14T08:33:29;7.28;;;5.80;;
74059;SDS011;62414;53.436;8.828;2022-08-14T08:35:56;7.90;;;5.80;;
74059;SDS011;62414;53.436;8.828;2022-08-14T08:38:23;8.43;;;6.00;;
74059;SDS011;62414;53.436;8.828;2022-08-14T08:40:50;8.30;;;5.70;;
74059;SDS011;62414;53.436;8.828;2022-08-14T08:43:18;8.13;;;6.07;;
74059;SDS011;62414;53.436;8.828;2022-08-14T08:45:51;7.22;;;5.63;;
74059;SDS011;62414;53.436;8.828;2022-08-14T08:48:18;8.20;;;6.00;;
74059;SDS011;62414;53.436;8.828;2022-08-14T08:50:43;7.60;;;6.20;;
74059;SDS011;62414;53.436;8.828;2022-08-14T08:53:09;8.23;;;6.40;;
74059;SDS011;62414;53.436;8.828;2022-08-14T08:55:36;6.97;;;6.00;;
74059;SDS011;62414;53.436;8.828;2022-08-14T08:58:04;7.93;;;5.80;;
74059;SDS011;62414;53.436;8.828;2022-08-14T09:00:32;7.22;;;5.80;;
74059;SDS011;62414;53.436;8.828;2022-08-14T09:03:02;7.60;;;6.07;;
74059;SDS011;62414;53.436;8.828;2022-08-14T09:05:30;8.13;;;6.03;;
74059;SDS011;62414;53.436;8.828;2022-08-14T09:08:09;7.60;;;5.68;;
74059;SDS011;62414;53.436;8.828;2022-08-14T09:10:36;7.32;;;5.53;;
74059;SDS011;62414;53.436;8.828;2022-08-14T09:13:02;7.47;;;5.60;;
74059;SDS011;62414;53.436;8.828;2022-08-14T09:15:28;7.65;;;6.15;;
74059;SDS011;62414;53.436;8.828;2022-08-14T09:17:53;8.70;;;6.35;;
74059;SDS011;62414;53.436;8.828;2022-08-14T09:20:21;8.70;;;6.10;;
74059;SDS011;62414;53.436;8.828;2022-08-14T09:22:47;7.83;;;6.40;;
74059;SDS011;62414;53.436;8.828;2022-08-14T09:25:14;9.48;;;6.50;;
74059;SDS011;62414;53.436;8.828;2022-08-14T09:27:40;10.07;;;6.28;;
74059;SDS011;62414;53.436;8.828;2022-08-14T09:30:06;7.73;;;6.13;;
74059;SDS011;62414;53.436;8.828;2022-08-14T09:32:35;8.90;;;6.90;;
74059;SDS011;62414;53.436;8.828;2022-08-14T09:35:11;14.80;;;6.88;;
74059;SDS011;62414;53.436;8.828;2022-08-14T09:37:47;9.27;;;6.60;;
74059;SDS011;62414;53.436;8.828;2022-08-14T09:40:23;9.00;;;6.40;;
74059;SDS011;62414;53.436;8.828;2022-08-14T09:43:03;9.45;;;6.70;;
74059;SDS011;62414;53.436;8.828;2022-08-14T09:45:35;9.45;;;6.78;;
74059;SDS011;62414;53.436;8.828;2022-08-14T09:48:12;8.65;;;7.03;;
74059;SDS011;62414;53.436;8.828;2022-08-14T09:50:44;11.27;;;6.90;;
74059;SDS011;62414;53.436;8.828;2022-08-14T09:53:11;9.10;;;7.13;;
74059;SDS011;62414;53.436;8.828;2022-08-14T09:55:41;9.13;;;6.88;;
74059;SDS011;62414;53.436;8.828;2022-08-14T09:58:07;9.98;;;7.03;;
74059;SDS011;62414;53.436;8.828;2022-08-14T10:00:35;9.47;;;7.47;;
74059;SDS011;62414;53.436;8.828;2022-08-14T10:03:08;9.10;;;7.10;;
74059;SDS011;62414;53.436;8.828;2022-08-14T10:05:34;9.95;;;7.38;;
74059;SDS011;62414;53.436;8.828;2022-08-14T10:08:02;9.87;;;7.53;;
74059;SDS011;62414;53.436;8.828;2022-08-14T10:10:32;9.93;;;7.63;;
74059;SDS011;62414;53.436;8.828;2022-08-14T10:13:00;8.77;;;7.32;;
74059;SDS011;62414;53.436;8.828;2022-08-14T10:15:26;10.05;;;7.85;;
74059;SDS011;62414;53.436;8.828;2022-08-14T10:18:03;10.02;;;7.70;;
74059;SDS011;62414;53.436;8.828;2022-08-14T10:20:31;10.17;;;7.77;;
74059;SDS011;62414;53.436;8.828;2022-08-14T10:23:07;9.77;;;7.43;;
74059;SDS011;62414;53.436;8.828;2022-08-14T10:25:39;9.40;;;7.45;;
74059;SDS011;62414;53.436;8.828;2022-08-14T10:28:05;9.75;;;7.28;;
74059;SDS011;62414;53.436;8.828;2022-08-14T10:30:33;11.73;;;7.70;;
74059;SDS011;62414;53.436;8.828;2022-08-14T10:32:59;11.27;;;7.55;;
74059;SDS011;62414;53.436;8.828;2022-08-14T10:35:24;9.23;;;7.30;;
74059;SDS011;62414;53.436;8.828;2022-08-14T10:37:50;8.97;;;7.47;;
74059;SDS011;62414;53.436;8.828;2022-08-14T10:40:23;11.80;;;7.90;;
74059;SDS011;62414;53.436;8.828;2022-08-14T10:42:52;10.38;;;7.80;;
74059;SDS011;62414;53.436;8.828;2022-08-14T10:45:18;10.40;;;7.63;;
74059;SDS011;62414;53.436;8.828;2022-08-14T10:47:46;8.80;;;7.43;;
74059;SDS011;62414;53.436;8.828;2022-08-14T10:50:13;9.63;;;7.50;;
74059;SDS011;62414;53.436;8.828;2022-08-14T10:52:39;10.93;;;7.20;;
74059;SDS011;62414;53.436;8.828;2022-08-14T10:55:06;9.88;;;7.20;;
74059;SDS011;62414;53.436;8.828;2022-08-14T10:57:33;9.23;;;7.78;;
74059;SDS011;62414;53.436;8.828;2022-08-14T11:00:01;10.45;;;7.63;;
74059;SDS011;62414;53.436;8.828;2022-08-14T11:02:36;9.27;;;7.00;;
74059;SDS011;62414;53.436;8.828;2022-08-14T11:05:04;10.50;;;6.90;;
74059;SDS011;62414;53.436;8.828;2022-08-14T11:07:32;10.35;;;7.50;;
74059;SDS011;62414;53.436;8.828;2022-08-14T11:09:59;9.60;;;6.90;;
74059;SDS011;62414;53.436;8.828;2022-08-14T11:12:26;8.93;;;6.90;;
74059;SDS011;62414;53.436;8.828;2022-08-14T11:15:05;9.70;;;7.45;;
74059;SDS011;62414;53.436;8.828;2022-08-14T11:17:31;9.63;;;6.75;;
74059;SDS011;62414;53.436;8.828;2022-08-14T11:19:58;9.52;;;7.10;;
74059;SDS011;62414;53.436;8.828;2022-08-14T11:22:25;8.97;;;6.87;;
74059;SDS011;62414;53.436;8.828;2022-08-14T11:24:53;8.18;;;6.70;;
74059;SDS011;62414;53.436;8.828;2022-08-14T11:27:20;9.07;;;6.90;;
74059;SDS011;62414;53.436;8.828;2022-08-14T11:29:47;9.35;;;7.22;;
74059;SDS011;62414;53.436;8.828;2022-08-14T11:32:16;8.60;;;7.25;;
74059;SDS011;62414;53.436;8.828;2022-08-14T11:34:41;9.87;;;7.20;;
74059;SDS011;62414;53.436;8.828;2022-08-14T11:37:07;8.95;;;7.68;;
74059;SDS011;62414;53.436;8.828;2022-08-14T11:39:34;8.27;;;7.22;;
74059;SDS011;62414;53.436;8.828;2022-08-14T11:41:59;11.20;;;9.80;;
74059;SDS011;62414;53.436;8.828;2022-08-14T11:44:25;9.27;;;7.43;;
74059;SDS011;62414;53.436;8.828;2022-08-14T11:46:50;9.32;;;7.20;;
74059;SDS011;62414;53.436;8.828;2022-08-14T11:49:25;9.37;;;6.97;;
74059;SDS011;62414;53.436;8.828;2022-08-14T11:51:51;9.80;;;6.95;;
74059;SDS011;62414;53.436;8.828;2022-08-14T11:54:17;10.57;;;7.15;;
74059;SDS011;62414;53.436;8.828;2022-08-14T11:56:43;9.60;;;7.00;;
74059;SDS011;62414;53.436;8.828;2022-08-14T11:59:13;8.82;;;7.10;;
74059;SDS011;62414;53.436;8.828;2022-08-14T12:01:41;8.88;;;7.07;;
74059;SDS011;62414;53.436;8.828;2022-08-14T12:04:07;8.80;;;7.10;;
74059;SDS011;62414;53.436;8.828;2022-08-14T12:06:44;8.43;;;7.03;;
74059;SDS011;62414;53.436;8.828;2022-08-14T12:09:12;8.02;;;7.05;;
74059;SDS011;62414;53.436;8.828;2022-08-14T12:11:38;8.23;;;7.10;;
74059;SDS011;62414;53.436;8.828;2022-08-14T12:14:05;7.90;;;7.10;;
74059;SDS011;62414;53.436;8.828;2022-08-14T12:16:31;9.73;;;7.22;;
74059;SDS011;62414;53.436;8.828;2022-08-14T12:18:57;9.07;;;7.30;;
74059;SDS011;62414;53.436;8.828;2022-08-14T12:21:23;8.73;;;7.68;;
74059;SDS011;62414;53.436;8.828;2022-08-14T12:24:01;8.77;;;6.83;;
74059;SDS011;62414;53.436;8.828;2022-08-14T12:26:28;12.07;;;7.03;;
74059;SDS011;62414;53.436;8.828;2022-08-14T12:29:02;8.95;;;7.22;;
74059;SDS011;62414;53.436;8.828;2022-08-14T12:31:29;8.43;;;7.33;;
74059;SDS011;62414;53.436;8.828;2022-08-14T12:33:55;8.48;;;7.53;;
74059;SDS011;62414;53.436;8.828;2022-08-14T12:36:22;9.43;;;7.30;;
74059;SDS011;62414;53.436;8.828;2022-08-14T12:38:49;10.05;;;7.30;;
74059;SDS011;62414;53.436;8.828;2022-08-14T12:41:16;8.73;;;7.80;;
74059;SDS011;62414;53.436;8.828;2022-08-14T12:43:44;8.70;;;6.82;;
74059;SDS011;62414;53.436;8.828;2022-08-14T12:46:18;7.85;;;7.05;;
74059;SDS011;62414;53.436;8.828;2022-08-14T12:48:45;9.05;;;7.30;;
74059;SDS011;62414;53.436;8.828;2022-08-14T12:51:14;8.80;;;7.20;;
74059;SDS011;62414;53.436;8.828;2022-08-14T12:53:40;9.20;;;7.53;;
74059;SDS011;62414;53.436;8.828;2022-08-14T12:56:07;8.88;;;6.78;;
74059;SDS011;62414;53.436;8.828;2022-08-14T12:58:34;7.87;;;7.00;;
74059;SDS011;62414;53.436;8.828;2022-08-14T13:01:00;8.70;;;7.40;;
74059;SDS011;62414;53.436;8.828;2022-08-14T13:03:27;9.10;;;7.57;;
74059;SDS011;62414;53.436;8.828;2022-08-14T13:05:53;9.50;;;7.35;;
74059;SDS011;62414;53.436;8.828;2022-08-14T13:08:19;8.60;;;7.25;;
74059;SDS011;62414;53.436;8.828;2022-08-14T13:10:45;9.00;;;7.50;;
74059;SDS011;62414;53.436;8.828;2022-08-14T13:13:11;11.77;;;7.38;;
74059;SDS011;62414;53.436;8.828;2022-08-14T13:15:41;9.07;;;7.10;;
74059;SDS011;62414;53.436;8.828;2022-08-14T13:18:07;9.68;;;7.20;;
74059;SDS011;62414;53.436;8.828;2022-08-14T13:20:34;12.25;;;7.57;;
74059;SDS011;62414;53.436;8.828;2022-08-14T13:22:59;10.10;;;7.20;;
74059;SDS011;62414;53.436;8.828;2022-08-14T13:25:26;8.73;;;7.05;;
74059;SDS011;62414;53.436;8.828;2022-08-14T13:27:53;9.53;;;7.70;;
74059;SDS011;62414;53.436;8.828;2022-08-14T13:30:20;10.18;;;7.88;;
74059;SDS011;62414;53.436;8.828;2022-08-14T13:32:48;8.50;;;7.60;;
74059;SDS011;62414;53.436;8.828;2022-08-14T13:35:15;9.95;;;7.47;;
74059;SDS011;62414;53.436;8.828;2022-08-14T13:37:41;9.30;;;7.75;;
74059;SDS011;62414;53.436;8.828;2022-08-14T13:40:08;11.20;;;8.10;;
74059;SDS011;62414;53.436;8.828;2022-08-14T13:42:35;8.98;;;7.47;;
74059;SDS011;62414;53.436;8.828;2022-08-14T13:45:05;8.95;;;8.02;;
74059;SDS011;62414;53.436;8.828;2022-08-14T13:47:33;8.45;;;7.45;;
74059;SDS011;62414;53.436;8.828;2022-08-14T13:50:01;8.90;;;7.85;;
74059;SDS011;62414;53.436;8.828;2022-08-14T13:52:29;9.00;;;7.60;;
74059;SDS011;62414;53.436;8.828;2022-08-14T13:55:03;8.98;;;7.45;;
74059;SDS011;62414;53.436;8.828;2022-08-14T13:57:32;8.90;;;8.00;;
74059;SDS011;62414;53.436;8.828;2022-08-14T13:59:59;11.90;;;7.97;;
74059;SDS011;62414;53.436;8.828;2022-08-14T14:02:26;9.52;;;7.95;;
74059;SDS011;62414;53.436;8.828;2022-08-14T14:04:55;10.33;;;7.70;;
74059;SDS011;62414;53.436;8.828;2022-08-14T14:07:26;9.65;;;7.70;;
74059;SDS011;62414;53.436;8.828;2022-08-14T14:09:54;8.40;;;7.35;;
74059;SDS011;62414;53.436;8.828;2022-08-14T14:12:22;10.48;;;7.50;;
74059;SDS011;62414;53.436;8.828;2022-08-14T14:14:48;10.05;;;8.38;;
74059;SDS011;62414;53.436;8.828;2022-08-14T14:17:16;9.43;;;7.70;;
74059;SDS011;62414;53.436;8.828;2022-08-14T14:19:42;9.05;;;7.72;;
74059;SDS011;62414;53.436;8.828;2022-08-14T14:22:08;9.40;;;8.23;;
74059;SDS011;62414;53.436;8.828;2022-08-14T14:24:35;9.67;;;7.53;;
74059;SDS011;62414;53.436;8.828;2022-08-14T14:27:02;9.23;;;8.20;;
74059;SDS011;62414;53.436;8.828;2022-08-14T14:29:29;10.20;;;7.90;;
74059;SDS011;62414;53.436;8.828;2022-08-14T14:31:56;9.18;;;8.05;;
74059;SDS011;62414;53.436;8.828;2022-08-14T14:34:23;10.68;;;8.38;;
74059;SDS011;62414;53.436;8.828;2022-08-14T14:36:50;9.07;;;8.17;;
74059;SDS011;62414;53.436;8.828;2022-08-14T14:39:17;10.80;;;8.43;;
74059;SDS011;62414;53.436;8.828;2022-08-14T14:41:48;9.88;;;8.23;;
74059;SDS011;62414;53.436;8.828;2022-08-14T14:44:16;8.75;;;7.85;;